Tavernier, Florida
Current Conditions -  °F | °C
As of 8:58 PM on Friday 19 Dec 2014 (Local Time) from KHST Reporting Station
Clear Clear  
Wind Chill: 64°   Ceiling: Unl
Heat Index: 64°   Visibility: 10mi
Dew Point: 58°   Wind: 1mph
Humidity: 83%   Direction: 40°NE
Pressure: 30.08"   Gusts: NA
Location:  25.01°N, 80.51°W
Report Text: KHST 200158Z AUTO 04001KT 10SM CLR 18/15 A3008 RMK AO2 SLP189 T01760147 $
Loading
Personal Weather Stations






























Interactive Weather Map New forecast layout! Learn more

10-Day Weather Forecast

Advertisements
Track Severe Weather on mobile